sensor_id;sensor_type;location;lat;lon;timestamp;temperature;humidity
16578;DHT22;8401;52.528;13.340;2023-02-01T00:02:06;4.80;99.90
16578;DHT22;8401;52.528;13.340;2023-02-01T00:04:31;4.80;99.90
16578;DHT22;8401;52.528;13.340;2023-02-01T00:06:57;4.80;99.90
16578;DHT22;8401;52.528;13.340;2023-02-01T00:09:23;4.70;99.90
16578;DHT22;8401;52.528;13.340;2023-02-01T00:11:48;4.60;99.90
16578;DHT22;8401;52.528;13.340;2023-02-01T00:14:14;4.70;99.90
16578;DHT22;8401;52.528;13.340;2023-02-01T00:16:40;4.70;99.90
16578;DHT22;8401;52.528;13.340;2023-02-01T00:19:11;4.70;99.90
16578;DHT22;8401;52.528;13.340;2023-02-01T00:21:37;4.70;99.90
16578;DHT22;8401;52.528;13.340;2023-02-01T00:24:04;4.70;99.90
16578;DHT22;8401;52.528;13.340;2023-02-01T00:26:44;4.80;99.90
16578;DHT22;8401;52.528;13.340;2023-02-01T00:29:12;4.90;99.90
16578;DHT22;8401;52.528;13.340;2023-02-01T00:31:38;4.80;99.90
16578;DHT22;8401;52.528;13.340;2023-02-01T00:34:05;4.90;99.90
16578;DHT22;8401;52.528;13.340;2023-02-01T00:36:30;4.90;99.90
16578;DHT22;8401;52.528;13.340;2023-02-01T00:38:56;4.90;99.90
16578;DHT22;8401;52.528;13.340;2023-02-01T00:41:23;4.90;99.90
16578;DHT22;8401;52.528;13.340;2023-02-01T00:43:49;4.80;99.90
16578;DHT22;8401;52.528;13.340;2023-02-01T00:46:17;4.80;99.90
16578;DHT22;8401;52.528;13.340;2023-02-01T00:48:43;4.70;99.90
16578;DHT22;8401;52.528;13.340;2023-02-01T00:51:13;4.70;99.90
16578;DHT22;8401;52.528;13.340;2023-02-01T00:53:39;4.60;99.90
16578;DHT22;8401;52.528;13.340;2023-02-01T00:56:06;4.60;99.90
16578;DHT22;8401;52.528;13.340;2023-02-01T00:58:32;4.60;99.90
16578;DHT22;8401;52.528;13.340;2023-02-01T01:03:41;4.50;99.90
16578;DHT22;8401;52.528;13.340;2023-02-01T01:06:13;4.40;99.90
16578;DHT22;8401;52.528;13.340;2023-02-01T01:08:40;4.40;99.90
16578;DHT22;8401;52.528;13.340;2023-02-01T01:11:13;4.40;99.90
16578;DHT22;8401;52.528;13.340;2023-02-01T01:13:39;4.40;99.90
16578;DHT22;8401;52.528;13.340;2023-02-01T01:16:06;4.40;99.90
16578;DHT22;8401;52.528;13.340;2023-02-01T01:18:33;4.30;99.90
16578;DHT22;8401;52.528;13.340;2023-02-01T01:21:00;4.30;99.90
16578;DHT22;8401;52.528;13.340;2023-02-01T01:23:27;4.30;99.90
16578;DHT22;8401;52.528;13.340;2023-02-01T01:25:53;4.30;99.90
16578;DHT22;8401;52.528;13.340;2023-02-01T01:28:18;4.30;99.90
16578;DHT22;8401;52.528;13.340;2023-02-01T01:30:44;4.30;99.90
16578;DHT22;8401;52.528;13.340;2023-02-01T01:33:10;4.40;99.90
16578;DHT22;8401;52.528;13.340;2023-02-01T01:35:36;4.40;99.90
16578;DHT22;8401;52.528;13.340;2023-02-01T01:38:02;4.30;99.90
16578;DHT22;8401;52.528;13.340;2023-02-01T01:40:29;4.30;99.90
16578;DHT22;8401;52.528;13.340;2023-02-01T01:42:55;4.30;99.90
16578;DHT22;8401;52.528;13.340;2023-02-01T01:45:33;4.40;99.90
16578;DHT22;8401;52.528;13.340;2023-02-01T01:48:09;4.40;99.90
16578;DHT22;8401;52.528;13.340;2023-02-01T01:50:41;4.50;99.90
16578;DHT22;8401;52.528;13.340;2023-02-01T01:53:09;4.40;99.90
16578;DHT22;8401;52.528;13.340;2023-02-01T01:55:40;4.50;99.90
16578;DHT22;8401;52.528;13.340;2023-02-01T01:58:12;4.50;99.90
16578;DHT22;8401;52.528;13.340;2023-02-01T02:00:38;4.50;99.90
16578;DHT22;8401;52.528;13.340;2023-02-01T02:03:11;4.50;99.90
16578;DHT22;8401;52.528;13.340;2023-02-01T02:05:39;4.60;99.90
16578;DHT22;8401;52.528;13.340;2023-02-01T02:08:04;4.50;99.90
16578;DHT22;8401;52.528;13.340;2023-02-01T02:10:30;4.50;99.90
16578;DHT22;8401;52.528;13.340;2023-02-01T02:13:16;4.50;99.90
16578;DHT22;8401;52.528;13.340;2023-02-01T02:18:51;4.60;99.90
16578;DHT22;8401;52.528;13.340;2023-02-01T02:21:42;4.60;99.90
16578;DHT22;8401;52.528;13.340;2023-02-01T02:35:56;4.50;99.90
16578;DHT22;8401;52.528;13.340;2023-02-01T02:44:35;4.60;99.90
16578;DHT22;8401;52.528;13.340;2023-02-01T02:47:54;4.60;99.90
16578;DHT22;8401;52.528;13.340;2023-02-01T02:50:51;4.60;99.90
16578;DHT22;8401;52.528;13.340;2023-02-01T02:54:02;4.50;99.90
16578;DHT22;8401;52.528;13.340;2023-02-01T02:56:49;4.60;99.90
16578;DHT22;8401;52.528;13.340;2023-02-01T02:59:35;4.60;99.90
16578;DHT22;8401;52.528;13.340;2023-02-01T03:02:21;4.60;99.90
16578;DHT22;8401;52.528;13.340;2023-02-01T03:05:05;4.50;99.90
16578;DHT22;8401;52.528;13.340;2023-02-01T03:07:55;4.60;99.90
16578;DHT22;8401;52.528;13.340;2023-02-01T03:10:48;4.60;99.90
16578;DHT22;8401;52.528;13.340;2023-02-01T03:21:17;4.60;99.90
16578;DHT22;8401;52.528;13.340;2023-02-01T03:23:45;4.60;99.90
16578;DHT22;8401;52.528;13.340;2023-02-01T03:26:14;4.60;99.90
16578;DHT22;8401;52.528;13.340;2023-02-01T03:28:53;4.60;99.90
16578;DHT22;8401;52.528;13.340;2023-02-01T03:31:20;4.60;99.90
16578;DHT22;8401;52.528;13.340;2023-02-01T03:33:46;4.60;99.90
16578;DHT22;8401;52.528;13.340;2023-02-01T03:36:26;4.60;99.90
16578;DHT22;8401;52.528;13.340;2023-02-01T03:39:17;4.70;99.90
16578;DHT22;8401;52.528;13.340;2023-02-01T03:41:53;4.60;99.90
16578;DHT22;8401;52.528;13.340;2023-02-01T03:44:29;4.60;99.90
16578;DHT22;8401;52.528;13.340;2023-02-01T03:47:06;4.60;99.90
16578;DHT22;8401;52.528;13.340;2023-02-01T03:49:41;4.60;99.90
16578;DHT22;8401;52.528;13.340;2023-02-01T03:52:13;4.60;99.90
16578;DHT22;8401;52.528;13.340;2023-02-01T03:54:40;4.70;99.90
16578;DHT22;8401;52.528;13.340;2023-02-01T03:57:10;4.70;99.90
16578;DHT22;8401;52.528;13.340;2023-02-01T03:59:44;4.70;99.90
16578;DHT22;8401;52.528;13.340;2023-02-01T04:02:11;4.70;99.90
16578;DHT22;8401;52.528;13.340;2023-02-01T04:04:37;4.80;99.90
16578;DHT22;8401;52.528;13.340;2023-02-01T04:07:02;4.80;99.90
16578;DHT22;8401;52.528;13.340;2023-02-01T04:09:28;4.80;99.90
16578;DHT22;8401;52.528;13.340;2023-02-01T04:11:54;4.90;99.90
16578;DHT22;8401;52.528;13.340;2023-02-01T04:14:20;4.90;99.90
16578;DHT22;8401;52.528;13.340;2023-02-01T04:16:45;4.90;99.90
16578;DHT22;8401;52.528;13.340;2023-02-01T04:19:11;4.90;99.90
16578;DHT22;8401;52.528;13.340;2023-02-01T04:21:37;4.90;99.90
16578;DHT22;8401;52.528;13.340;2023-02-01T04:24:03;4.90;99.90
16578;DHT22;8401;52.528;13.340;2023-02-01T04:26:28;5.00;99.90
16578;DHT22;8401;52.528;13.340;2023-02-01T04:28:54;5.00;99.90
16578;DHT22;8401;52.528;13.340;2023-02-01T04:31:20;5.00;99.90
16578;DHT22;8401;52.528;13.340;2023-02-01T04:33:54;5.00;99.90
16578;DHT22;8401;52.528;13.340;2023-02-01T04:36:21;5.00;99.90
16578;DHT22;8401;52.528;13.340;2023-02-01T04:38:50;5.00;99.90
16578;DHT22;8401;52.528;13.340;2023-02-01T04:41:16;5.10;99.90
16578;DHT22;8401;52.528;13.340;2023-02-01T04:43:49;5.10;99.90
16578;DHT22;8401;52.528;13.340;2023-02-01T04:46:15;5.10;99.90
16578;DHT22;8401;52.528;13.340;2023-02-01T04:48:41;5.10;99.90
16578;DHT22;8401;52.528;13.340;2023-02-01T04:51:07;5.20;99.90
16578;DHT22;8401;52.528;13.340;2023-02-01T04:53:33;5.20;99.90
16578;DHT22;8401;52.528;13.340;2023-02-01T04:55:59;5.20;99.90
16578;DHT22;8401;52.528;13.340;2023-02-01T04:58:25;5.20;99.90
16578;DHT22;8401;52.528;13.340;2023-02-01T05:00:50;5.20;99.90
16578;DHT22;8401;52.528;13.340;2023-02-01T05:03:17;5.30;99.90
16578;DHT22;8401;52.528;13.340;2023-02-01T05:05:43;5.30;99.90
16578;DHT22;8401;52.528;13.340;2023-02-01T05:08:08;5.30;99.90
16578;DHT22;8401;52.528;13.340;2023-02-01T05:10:34;5.30;99.90
16578;DHT22;8401;52.528;13.340;2023-02-01T05:13:00;5.30;99.90
16578;DHT22;8401;52.528;13.340;2023-02-01T05:15:44;5.30;99.90
16578;DHT22;8401;52.528;13.340;2023-02-01T05:18:11;5.30;99.90
16578;DHT22;8401;52.528;13.340;2023-02-01T05:20:37;5.40;99.90
16578;DHT22;8401;52.528;13.340;2023-02-01T05:23:03;5.40;99.90
16578;DHT22;8401;52.528;13.340;2023-02-01T05:25:28;5.40;99.90
16578;DHT22;8401;52.528;13.340;2023-02-01T05:27:54;5.40;99.90
16578;DHT22;8401;52.528;13.340;2023-02-01T05:30:20;5.40;99.90
16578;DHT22;8401;52.528;13.340;2023-02-01T05:32:45;5.40;99.90
16578;DHT22;8401;52.528;13.340;2023-02-01T05:35:14;5.40;99.90
16578;DHT22;8401;52.528;13.340;2023-02-01T05:37:39;5.40;99.90
16578;DHT22;8401;52.528;13.340;2023-02-01T05:40:05;5.40;99.90
16578;DHT22;8401;52.528;13.340;2023-02-01T05:42:31;5.40;99.90
16578;DHT22;8401;52.528;13.340;2023-02-01T05:44:57;5.40;99.90
16578;DHT22;8401;52.528;13.340;2023-02-01T05:47:22;5.40;99.90
16578;DHT22;8401;52.528;13.340;2023-02-01T05:49:48;5.40;99.90
16578;DHT22;8401;52.528;13.340;2023-02-01T05:52:14;5.50;99.90
16578;DHT22;8401;52.528;13.340;2023-02-01T05:54:45;5.40;99.90
16578;DHT22;8401;52.528;13.340;2023-02-01T05:57:11;5.40;99.90
16578;DHT22;8401;52.528;13.340;2023-02-01T05:59:38;5.40;99.90
16578;DHT22;8401;52.528;13.340;2023-02-01T06:02:07;5.40;99.90
16578;DHT22;8401;52.528;13.340;2023-02-01T06:04:32;5.50;99.90
16578;DHT22;8401;52.528;13.340;2023-02-01T06:06:58;5.50;99.90
16578;DHT22;8401;52.528;13.340;2023-02-01T06:09:24;5.40;99.90
16578;DHT22;8401;52.528;13.340;2023-02-01T06:11:49;5.40;99.90
16578;DHT22;8401;52.528;13.340;2023-02-01T06:14:15;5.40;99.90
16578;DHT22;8401;52.528;13.340;2023-02-01T06:16:40;5.40;99.90
16578;DHT22;8401;52.528;13.340;2023-02-01T06:19:06;5.30;99.90
16578;DHT22;8401;52.528;13.340;2023-02-01T06:21:32;5.30;99.90
16578;DHT22;8401;52.528;13.340;2023-02-01T06:23:58;5.30;99.90
16578;DHT22;8401;52.528;13.340;2023-02-01T06:26:24;5.30;99.90
16578;DHT22;8401;52.528;13.340;2023-02-01T06:28:50;5.20;99.90
16578;DHT22;8401;52.528;13.340;2023-02-01T06:31:15;5.20;99.90
16578;DHT22;8401;52.528;13.340;2023-02-01T06:33:41;5.20;99.90
16578;DHT22;8401;52.528;13.340;2023-02-01T06:36:09;5.20;99.90
16578;DHT22;8401;52.528;13.340;2023-02-01T06:38:35;5.10;99.90
16578;DHT22;8401;52.528;13.340;2023-02-01T06:41:01;5.10;99.90
16578;DHT22;8401;52.528;13.340;2023-02-01T06:43:28;5.10;99.90
16578;DHT22;8401;52.528;13.340;2023-02-01T06:45:58;5.10;99.90
16578;DHT22;8401;52.528;13.340;2023-02-01T06:48:24;5.20;99.90
16578;DHT22;8401;52.528;13.340;2023-02-01T06:50:50;5.20;99.90
16578;DHT22;8401;52.528;13.340;2023-02-01T06:53:15;5.20;99.90
16578;DHT22;8401;52.528;13.340;2023-02-01T06:55:41;5.20;99.90
16578;DHT22;8401;52.528;13.340;2023-02-01T06:58:16;5.20;99.90
16578;DHT22;8401;52.528;13.340;2023-02-01T07:00:41;5.20;99.90
16578;DHT22;8401;52.528;13.340;2023-02-01T07:03:07;5.20;99.90
16578;DHT22;8401;52.528;13.340;2023-02-01T07:05:32;5.20;99.90
16578;DHT22;8401;52.528;13.340;2023-02-01T07:07:58;5.30;99.90
16578;DHT22;8401;52.528;13.340;2023-02-01T07:10:24;5.30;99.90
16578;DHT22;8401;52.528;13.340;2023-02-01T07:12:49;5.30;99.90
16578;DHT22;8401;52.528;13.340;2023-02-01T07:15:15;5.30;99.90
16578;DHT22;8401;52.528;13.340;2023-02-01T07:17:41;5.40;99.90
16578;DHT22;8401;52.528;13.340;2023-02-01T07:20:07;5.40;99.90
16578;DHT22;8401;52.528;13.340;2023-02-01T07:22:33;5.30;99.90
16578;DHT22;8401;52.528;13.340;2023-02-01T07:24:58;5.20;99.90
16578;DHT22;8401;52.528;13.340;2023-02-01T07:27:24;5.20;99.90
16578;DHT22;8401;52.528;13.340;2023-02-01T07:29:51;5.20;99.90
16578;DHT22;8401;52.528;13.340;2023-02-01T07:32:17;5.20;99.90
16578;DHT22;8401;52.528;13.340;2023-02-01T07:34:44;5.20;99.90
16578;DHT22;8401;52.528;13.340;2023-02-01T07:37:10;5.20;99.90
16578;DHT22;8401;52.528;13.340;2023-02-01T07:39:35;5.20;99.90
16578;DHT22;8401;52.528;13.340;2023-02-01T07:42:01;5.20;99.90
16578;DHT22;8401;52.528;13.340;2023-02-01T07:44:27;5.20;99.90
16578;DHT22;8401;52.528;13.340;2023-02-01T07:46:52;5.20;99.90
16578;DHT22;8401;52.528;13.340;2023-02-01T07:49:18;5.20;99.90
16578;DHT22;8401;52.528;13.340;2023-02-01T07:51:44;5.00;99.90
16578;DHT22;8401;52.528;13.340;2023-02-01T07:54:09;5.00;99.90
16578;DHT22;8401;52.528;13.340;2023-02-01T07:56:35;5.00;99.90
16578;DHT22;8401;52.528;13.340;2023-02-01T07:59:01;4.80;99.90
16578;DHT22;8401;52.528;13.340;2023-02-01T08:01:28;4.80;99.90
16578;DHT22;8401;52.528;13.340;2023-02-01T08:03:58;4.70;99.90
16578;DHT22;8401;52.528;13.340;2023-02-01T08:06:25;4.60;99.90
16578;DHT22;8401;52.528;13.340;2023-02-01T08:08:52;4.50;99.90
16578;DHT22;8401;52.528;13.340;2023-02-01T08:11:19;4.40;99.90
16578;DHT22;8401;52.528;13.340;2023-02-01T08:13:45;4.30;99.90
16578;DHT22;8401;52.528;13.340;2023-02-01T08:16:12;4.30;99.90
16578;DHT22;8401;52.528;13.340;2023-02-01T08:18:39;4.30;99.90
16578;DHT22;8401;52.528;13.340;2023-02-01T08:21:07;4.30;99.90
16578;DHT22;8401;52.528;13.340;2023-02-01T08:23:35;4.30;99.90
16578;DHT22;8401;52.528;13.340;2023-02-01T08:26:05;4.30;99.90
16578;DHT22;8401;52.528;13.340;2023-02-01T08:28:31;4.10;99.90
16578;DHT22;8401;52.528;13.340;2023-02-01T08:30:57;4.20;99.90
16578;DHT22;8401;52.528;13.340;2023-02-01T08:33:23;4.20;99.90
16578;DHT22;8401;52.528;13.340;2023-02-01T08:35:48;4.10;99.90
16578;DHT22;8401;52.528;13.340;2023-02-01T08:38:14;4.10;99.90
16578;DHT22;8401;52.528;13.340;2023-02-01T08:40:40;4.10;99.90
16578;DHT22;8401;52.528;13.340;2023-02-01T08:43:07;4.10;99.90
16578;DHT22;8401;52.528;13.340;2023-02-01T08:45:32;4.10;99.90
16578;DHT22;8401;52.528;13.340;2023-02-01T08:47:59;4.10;99.90
16578;DHT22;8401;52.528;13.340;2023-02-01T08:50:25;4.10;99.90
16578;DHT22;8401;52.528;13.340;2023-02-01T08:52:51;4.10;99.90
16578;DHT22;8401;52.528;13.340;2023-02-01T08:55:17;4.10;99.90
16578;DHT22;8401;52.528;13.340;2023-02-01T08:57:43;4.10;99.90
16578;DHT22;8401;52.528;13.340;2023-02-01T09:00:12;4.10;99.90
16578;DHT22;8401;52.528;13.340;2023-02-01T09:02:39;4.20;99.90
16578;DHT22;8401;52.528;13.340;2023-02-01T09:05:05;4.10;99.90
16578;DHT22;8401;52.528;13.340;2023-02-01T09:07:32;4.20;99.90
16578;DHT22;8401;52.528;13.340;2023-02-01T09:09:57;4.10;99.90
16578;DHT22;8401;52.528;13.340;2023-02-01T09:12:30;4.20;99.90
16578;DHT22;8401;52.528;13.340;2023-02-01T09:14:57;4.20;99.90
16578;DHT22;8401;52.528;13.340;2023-02-01T09:17:25;4.20;99.90
16578;DHT22;8401;52.528;13.340;2023-02-01T09:19:51;4.30;99.90
16578;DHT22;8401;52.528;13.340;2023-02-01T09:22:16;4.30;99.90
16578;DHT22;8401;52.528;13.340;2023-02-01T09:24:42;4.40;99.90
16578;DHT22;8401;52.528;13.340;2023-02-01T09:27:08;4.50;99.90
16578;DHT22;8401;52.528;13.340;2023-02-01T09:29:34;4.50;99.90
16578;DHT22;8401;52.528;13.340;2023-02-01T09:31:59;4.50;99.90
16578;DHT22;8401;52.528;13.340;2023-02-01T09:34:25;4.50;99.90
16578;DHT22;8401;52.528;13.340;2023-02-01T09:36:51;4.50;99.90
16578;DHT22;8401;52.528;13.340;2023-02-01T09:39:17;4.50;99.90
16578;DHT22;8401;52.528;13.340;2023-02-01T09:42:05;4.50;99.90
16578;DHT22;8401;52.528;13.340;2023-02-01T09:44:45;4.50;99.90
16578;DHT22;8401;52.528;13.340;2023-02-01T09:47:17;4.50;99.90
16578;DHT22;8401;52.528;13.340;2023-02-01T09:50:00;4.50;99.90
16578;DHT22;8401;52.528;13.340;2023-02-01T09:55:47;4.60;99.90
16578;DHT22;8401;52.528;13.340;2023-02-01T09:58:22;4.60;99.90
16578;DHT22;8401;52.528;13.340;2023-02-01T10:00:55;4.60;99.90
16578;DHT22;8401;52.528;13.340;2023-02-01T10:03:24;4.60;99.90
16578;DHT22;8401;52.528;13.340;2023-02-01T10:23:40;4.50;99.90
16578;DHT22;8401;52.528;13.340;2023-02-01T10:26:22;4.50;99.90
16578;DHT22;8401;52.528;13.340;2023-02-01T10:28:58;4.50;99.90
16578;DHT22;8401;52.528;13.340;2023-02-01T10:31:28;4.50;99.90
16578;DHT22;8401;52.528;13.340;2023-02-01T10:33:59;4.60;99.90
16578;DHT22;8401;52.528;13.340;2023-02-01T10:36:32;4.60;99.90
16578;DHT22;8401;52.528;13.340;2023-02-01T10:39:02;4.70;99.90
16578;DHT22;8401;52.528;13.340;2023-02-01T10:41:35;4.70;99.90
16578;DHT22;8401;52.528;13.340;2023-02-01T10:44:03;4.80;99.90
16578;DHT22;8401;52.528;13.340;2023-02-01T10:46:31;4.70;99.90
16578;DHT22;8401;52.528;13.340;2023-02-01T10:48:58;4.70;99.90
16578;DHT22;8401;52.528;13.340;2023-02-01T10:54:36;4.50;99.90
16578;DHT22;8401;52.528;13.340;2023-02-01T10:57:10;4.40;99.90
16578;DHT22;8401;52.528;13.340;2023-02-01T10:59:37;4.40;99.90
16578;DHT22;8401;52.528;13.340;2023-02-01T11:05:17;4.40;99.90
16578;DHT22;8401;52.528;13.340;2023-02-01T11:07:49;4.50;99.90
16578;DHT22;8401;52.528;13.340;2023-02-01T11:10:36;4.70;99.90
16578;DHT22;8401;52.528;13.340;2023-02-01T11:13:03;4.80;99.90
16578;DHT22;8401;52.528;13.340;2023-02-01T11:15:30;4.80;99.90
16578;DHT22;8401;52.528;13.340;2023-02-01T11:17:55;4.80;99.90
16578;DHT22;8401;52.528;13.340;2023-02-01T11:20:39;4.80;99.90
16578;DHT22;8401;52.528;13.340;2023-02-01T11:23:15;5.00;99.90
16578;DHT22;8401;52.528;13.340;2023-02-01T11:26:31;5.00;99.90
16578;DHT22;8401;52.528;13.340;2023-02-01T11:28:43;5.10;99.90
16578;DHT22;8401;52.528;13.340;2023-02-01T11:31:12;5.20;99.90
16578;DHT22;8401;52.528;13.340;2023-02-01T11:33:45;5.30;99.90
16578;DHT22;8401;52.528;13.340;2023-02-01T11:36:16;5.50;99.90
16578;DHT22;8401;52.528;13.340;2023-02-01T11:38:54;5.60;99.90
16578;DHT22;8401;52.528;13.340;2023-02-01T11:41:32;5.60;99.90
16578;DHT22;8401;52.528;13.340;2023-02-01T11:44:01;5.60;99.90
16578;DHT22;8401;52.528;13.340;2023-02-01T11:46:41;5.60;99.90
16578;DHT22;8401;52.528;13.340;2023-02-01T12:03:54;6.30;99.90
16578;DHT22;8401;52.528;13.340;2023-02-01T12:06:35;6.40;99.90
16578;DHT22;8401;52.528;13.340;2023-02-01T12:12:30;6.50;99.90
16578;DHT22;8401;52.528;13.340;2023-02-01T12:15:53;6.50;99.90
16578;DHT22;8401;52.528;13.340;2023-02-01T12:29:33;6.30;99.90
16578;DHT22;8401;52.528;13.340;2023-02-01T12:34:57;6.20;99.90
16578;DHT22;8401;52.528;13.340;2023-02-01T12:43:22;6.20;99.90
16578;DHT22;8401;52.528;13.340;2023-02-01T12:45:59;6.20;99.90
16578;DHT22;8401;52.528;13.340;2023-02-01T12:48:30;6.20;99.90
16578;DHT22;8401;52.528;13.340;2023-02-01T12:51:03;6.20;99.90
16578;DHT22;8401;52.528;13.340;2023-02-01T12:56:15;6.30;99.90
16578;DHT22;8401;52.528;13.340;2023-02-01T12:58:55;6.40;99.90
16578;DHT22;8401;52.528;13.340;2023-02-01T13:01:35;6.40;99.90
16578;DHT22;8401;52.528;13.340;2023-02-01T13:04:23;6.50;99.90
16578;DHT22;8401;52.528;13.340;2023-02-01T13:07:21;6.50;99.90
16578;DHT22;8401;52.528;13.340;2023-02-01T13:10:01;6.60;99.90
16578;DHT22;8401;52.528;13.340;2023-02-01T13:12:38;6.60;99.90
16578;DHT22;8401;52.528;13.340;2023-02-01T13:15:39;6.60;99.90
16578;DHT22;8401;52.528;13.340;2023-02-01T13:18:10;6.60;99.90
16578;DHT22;8401;52.528;13.340;2023-02-01T13:20:49;6.60;99.90
16578;DHT22;8401;52.528;13.340;2023-02-01T13:23:29;6.50;99.90
16578;DHT22;8401;52.528;13.340;2023-02-01T13:25:55;6.50;99.90
16578;DHT22;8401;52.528;13.340;2023-02-01T13:37:26;6.40;99.90
16578;DHT22;8401;52.528;13.340;2023-02-01T13:42:48;6.50;99.90
16578;DHT22;8401;52.528;13.340;2023-02-01T13:45:18;6.50;99.90
16578;DHT22;8401;52.528;13.340;2023-02-01T13:47:48;6.50;99.90
16578;DHT22;8401;52.528;13.340;2023-02-01T13:53:21;6.50;99.90
16578;DHT22;8401;52.528;13.340;2023-02-01T13:56:15;6.50;99.90
16578;DHT22;8401;52.528;13.340;2023-02-01T13:58:43;6.50;99.90
16578;DHT22;8401;52.528;13.340;2023-02-01T14:06:38;6.60;99.90
16578;DHT22;8401;52.528;13.340;2023-02-01T14:11:40;6.60;99.90
16578;DHT22;8401;52.528;13.340;2023-02-01T14:16:42;6.30;99.90
16578;DHT22;8401;52.528;13.340;2023-02-01T14:19:19;6.10;99.90
16578;DHT22;8401;52.528;13.340;2023-02-01T14:21:54;6.00;99.90
16578;DHT22;8401;52.528;13.340;2023-02-01T14:24:29;5.90;99.90
16578;DHT22;8401;52.528;13.340;2023-02-01T14:26:58;5.90;99.90
16578;DHT22;8401;52.528;13.340;2023-02-01T14:29:33;5.90;99.90
16578;DHT22;8401;52.528;13.340;2023-02-01T14:32:04;5.90;99.90
16578;DHT22;8401;52.528;13.340;2023-02-01T14:42:47;6.10;99.90
16578;DHT22;8401;52.528;13.340;2023-02-01T14:55:50;6.10;99.90
16578;DHT22;8401;52.528;13.340;2023-02-01T15:00:54;6.10;99.90
16578;DHT22;8401;52.528;13.340;2023-02-01T15:06:04;6.20;99.90
16578;DHT22;8401;52.528;13.340;2023-02-01T15:08:33;6.20;99.90
16578;DHT22;8401;52.528;13.340;2023-02-01T15:11:05;6.10;99.90
16578;DHT22;8401;52.528;13.340;2023-02-01T15:13:32;6.00;99.90
16578;DHT22;8401;52.528;13.340;2023-02-01T15:16:05;5.80;99.90
16578;DHT22;8401;52.528;13.340;2023-02-01T15:18:34;5.70;99.90
16578;DHT22;8401;52.528;13.340;2023-02-01T15:21:01;5.60;99.90
16578;DHT22;8401;52.528;13.340;2023-02-01T15:23:27;5.50;99.90
16578;DHT22;8401;52.528;13.340;2023-02-01T15:25:53;5.40;99.90
16578;DHT22;8401;52.528;13.340;2023-02-01T15:28:19;5.30;99.90
16578;DHT22;8401;52.528;13.340;2023-02-01T15:31:11;5.20;99.90
16578;DHT22;8401;52.528;13.340;2023-02-01T15:33:37;5.00;99.90
16578;DHT22;8401;52.528;13.340;2023-02-01T15:38:39;4.80;99.90
16578;DHT22;8401;52.528;13.340;2023-02-01T15:41:06;4.60;99.90
16578;DHT22;8401;52.528;13.340;2023-02-01T15:46:34;4.20;99.90
16578;DHT22;8401;52.528;13.340;2023-02-01T15:49:01;4.10;99.90
16578;DHT22;8401;52.528;13.340;2023-02-01T15:51:29;4.00;99.90
16578;DHT22;8401;52.528;13.340;2023-02-01T15:54:03;3.90;99.90
16578;DHT22;8401;52.528;13.340;2023-02-01T15:56:35;3.90;99.90
16578;DHT22;8401;52.528;13.340;2023-02-01T15:59:12;3.90;99.90
16578;DHT22;8401;52.528;13.340;2023-02-01T16:01:39;3.80;99.90
16578;DHT22;8401;52.528;13.340;2023-02-01T16:04:12;3.80;99.90
16578;DHT22;8401;52.528;13.340;2023-02-01T16:06:49;3.60;99.90
16578;DHT22;8401;52.528;13.340;2023-02-01T16:09:18;3.50;99.90
16578;DHT22;8401;52.528;13.340;2023-02-01T16:11:48;3.40;99.90
16578;DHT22;8401;52.528;13.340;2023-02-01T16:14:15;3.30;99.90
16578;DHT22;8401;52.528;13.340;2023-02-01T16:16:41;3.10;99.90
16578;DHT22;8401;52.528;13.340;2023-02-01T16:19:07;3.00;99.90
16578;DHT22;8401;52.528;13.340;2023-02-01T16:21:33;2.90;99.90
16578;DHT22;8401;52.528;13.340;2023-02-01T16:23:58;2.90;99.90
16578;DHT22;8401;52.528;13.340;2023-02-01T16:26:29;2.90;99.90
16578;DHT22;8401;52.528;13.340;2023-02-01T16:28:57;2.80;99.90
16578;DHT22;8401;52.528;13.340;2023-02-01T16:31:28;2.80;99.90
16578;DHT22;8401;52.528;13.340;2023-02-01T16:33:55;2.90;99.90
16578;DHT22;8401;52.528;13.340;2023-02-01T16:36:21;2.90;99.90
16578;DHT22;8401;52.528;13.340;2023-02-01T16:38:47;2.90;99.90
16578;DHT22;8401;52.528;13.340;2023-02-01T16:41:16;2.90;99.90
16578;DHT22;8401;52.528;13.340;2023-02-01T16:43:42;2.90;99.90
16578;DHT22;8401;52.528;13.340;2023-02-01T16:46:16;3.00;99.90
16578;DHT22;8401;52.528;13.340;2023-02-01T16:48:48;3.00;99.90
16578;DHT22;8401;52.528;13.340;2023-02-01T16:51:16;3.00;99.90
16578;DHT22;8401;52.528;13.340;2023-02-01T16:53:42;3.10;99.90
16578;DHT22;8401;52.528;13.340;2023-02-01T16:56:17;3.10;99.90
16578;DHT22;8401;52.528;13.340;2023-02-01T16:58:43;3.10;99.90
16578;DHT22;8401;52.528;13.340;2023-02-01T17:01:13;3.20;99.90
16578;DHT22;8401;52.528;13.340;2023-02-01T17:03:40;3.30;99.90
16578;DHT22;8401;52.528;13.340;2023-02-01T17:06:08;3.30;99.90
16578;DHT22;8401;52.528;13.340;2023-02-01T17:08:36;3.30;99.90
16578;DHT22;8401;52.528;13.340;2023-02-01T17:11:04;3.30;99.90
16578;DHT22;8401;52.528;13.340;2023-02-01T17:13:30;3.40;99.90
16578;DHT22;8401;52.528;13.340;2023-02-01T17:16:02;3.40;99.90
16578;DHT22;8401;52.528;13.340;2023-02-01T17:18:31;3.40;99.90
16578;DHT22;8401;52.528;13.340;2023-02-01T17:20:59;3.50;99.90
16578;DHT22;8401;52.528;13.340;2023-02-01T17:23:26;3.50;99.90
16578;DHT22;8401;52.528;13.340;2023-02-01T17:25:52;3.50;99.90
16578;DHT22;8401;52.528;13.340;2023-02-01T17:28:18;3.50;99.90
16578;DHT22;8401;52.528;13.340;2023-02-01T17:30:43;3.60;99.90
16578;DHT22;8401;52.528;13.340;2023-02-01T17:33:36;3.60;99.90
16578;DHT22;8401;52.528;13.340;2023-02-01T17:36:04;3.70;99.90
16578;DHT22;8401;52.528;13.340;2023-02-01T17:38:31;3.70;99.90
16578;DHT22;8401;52.528;13.340;2023-02-01T17:40:57;3.70;99.90
16578;DHT22;8401;52.528;13.340;2023-02-01T17:43:24;3.80;99.90
16578;DHT22;8401;52.528;13.340;2023-02-01T17:45:59;3.80;99.90
16578;DHT22;8401;52.528;13.340;2023-02-01T17:48:26;3.80;99.90
16578;DHT22;8401;52.528;13.340;2023-02-01T17:50:52;3.80;99.90
16578;DHT22;8401;52.528;13.340;2023-02-01T17:53:26;3.80;99.90
16578;DHT22;8401;52.528;13.340;2023-02-01T17:55:52;3.90;99.90
16578;DHT22;8401;52.528;13.340;2023-02-01T17:58:18;3.90;99.90
16578;DHT22;8401;52.528;13.340;2023-02-01T18:00:45;3.90;99.90
16578;DHT22;8401;52.528;13.340;2023-02-01T18:03:25;3.90;99.90
16578;DHT22;8401;52.528;13.340;2023-02-01T18:05:53;3.90;99.90
16578;DHT22;8401;52.528;13.340;2023-02-01T18:08:24;3.90;99.90
16578;DHT22;8401;52.528;13.340;2023-02-01T18:10:52;4.00;99.90
16578;DHT22;8401;52.528;13.340;2023-02-01T18:13:19;4.00;99.90
16578;DHT22;8401;52.528;13.340;2023-02-01T18:15:44;4.00;99.90
16578;DHT22;8401;52.528;13.340;2023-02-01T18:18:10;4.00;99.90
16578;DHT22;8401;52.528;13.340;2023-02-01T18:20:36;4.00;99.90
16578;DHT22;8401;52.528;13.340;2023-02-01T18:23:04;4.10;99.90
16578;DHT22;8401;52.528;13.340;2023-02-01T18:25:30;4.10;99.90
16578;DHT22;8401;52.528;13.340;2023-02-01T18:28:02;4.10;99.90
16578;DHT22;8401;52.528;13.340;2023-02-01T18:30:29;4.10;99.90
16578;DHT22;8401;52.528;13.340;2023-02-01T18:32:56;4.10;99.90
16578;DHT22;8401;52.528;13.340;2023-02-01T18:35:24;4.20;99.90
16578;DHT22;8401;52.528;13.340;2023-02-01T18:37:51;4.20;99.90